Time;durP1;ratioP1;P1;durP2;ratioP2;P2;SDS_P1;SDS_P2;PMS_P1;PMS_P2;Temp;Humidity;BMP_temperature;BMP_pressure;BME280_temperature;BME280_humidity;BME280_pressure;Samples;Min_cycle;Max_cycle;Signal;HPM_P1;HPM_P2
2022/08/30 00:01:03;;;;;;;13.35;7.82;;;15.60;99.90;;;;;;5053403;28;20084;-71
2022/08/30 00:03:46;;;;;;;14.35;8.15;;;15.50;99.90;;;;;;5053475;28;20063;-71
2022/08/30 00:06:14;;;;;;;11.15;6.70;;;15.50;99.90;;;;;;5055294;28;20082;-71
2022/08/30 00:08:41;;;;;;;9.65;6.75;;;15.40;99.90;;;;;;5058865;28;20139;-71
2022/08/30 00:11:11;;;;;;;11.15;7.30;;;15.60;99.90;;;;;;5058812;28;20494;-70
2022/08/30 00:13:39;;;;;;;7.90;6.07;;;15.50;99.90;;;;;;5056843;28;20085;-71
2022/08/30 00:16:08;;;;;;;13.50;6.85;;;15.70;99.90;;;;;;5056073;28;20036;-70
2022/08/30 00:18:35;;;;;;;11.52;6.18;;;15.60;99.90;;;;;;5054455;28;20033;-70
2022/08/30 00:21:01;;;;;;;11.63;5.45;;;15.60;99.90;;;;;;5053982;28;20064;-70
2022/08/30 00:23:26;;;;;;;10.25;5.60;;;15.60;99.90;;;;;;5053846;28;20033;-71
2022/08/30 00:25:52;;;;;;;6.40;4.43;;;15.70;99.90;;;;;;5053407;28;20111;-71
2022/08/30 00:28:18;;;;;;;9.55;5.22;;;15.60;99.90;;;;;;5053736;28;20052;-70
2022/08/30 00:30:45;;;;;;;7.22;5.43;;;15.70;99.90;;;;;;5054053;28;20032;-70
2022/08/30 00:33:12;;;;;;;10.30;5.53;;;15.70;99.90;;;;;;5052431;28;20044;-70
2022/08/30 00:35:38;;;;;;;9.77;4.80;;;15.80;99.90;;;;;;5053421;28;20108;-71
2022/08/30 00:38:05;;;;;;;10.50;5.07;;;15.70;99.90;;;;;;5053613;28;20563;-71
2022/08/30 00:40:31;;;;;;;6.78;4.75;;;15.70;99.90;;;;;;5052402;28;20053;-71
2022/08/30 00:43:00;;;;;;;8.23;4.95;;;15.60;99.90;;;;;;5053766;28;20124;-71
2022/08/30 00:45:31;;;;;;;7.85;4.40;;;15.60;99.90;;;;;;5053357;28;20053;-70
2022/08/30 00:47:58;;;;;;;7.68;4.47;;;15.50;99.90;;;;;;5051980;28;20045;-71
2022/08/30 00:50:28;;;;;;;8.60;4.53;;;15.70;99.90;;;;;;5053431;28;20044;-70
2022/08/30 00:52:57;;;;;;;8.45;5.43;;;15.50;99.90;;;;;;5052200;28;20148;-71
2022/08/30 00:55:23;;;;;;;7.43;4.70;;;15.60;99.90;;;;;;5051956;28;20047;-71
2022/08/30 00:57:55;;;;;;;6.22;4.68;;;15.50;99.90;;;;;;5051910;28;20080;-71
2022/08/30 01:00:20;;;;;;;8.27;4.95;;;15.40;99.90;;;;;;5053218;28;20453;-71
2022/08/30 01:02:47;;;;;;;4.82;4.03;;;;;;;;;;5053223;28;20112;-71
2022/08/30 01:05:14;;;;;;;6.57;4.60;;;15.40;99.90;;;;;;5051479;28;20045;-70
2022/08/30 01:07:40;;;;;;;8.85;4.53;;;15.50;99.90;;;;;;5051536;28;20037;-71
2022/08/30 01:10:08;;;;;;;4.60;4.13;;;15.50;99.90;;;;;;5051680;28;20086;-70
2022/08/30 01:12:35;;;;;;;5.60;4.47;;;15.50;99.90;;;;;;5053090;28;20029;-71
2022/08/30 01:15:01;;;;;;;7.38;4.63;;;15.30;99.90;;;;;;5050201;28;20041;-70
2022/08/30 01:17:28;;;;;;;6.07;4.35;;;15.60;99.90;;;;;;5051425;28;20487;-71
2022/08/30 01:19:58;;;;;;;5.00;4.22;;;15.40;99.90;;;;;;5051763;28;20056;-71
2022/08/30 01:22:48;;;;;;;6.03;4.45;;;15.60;99.90;;;;;;5052744;28;20495;-70
2022/08/30 01:25:17;;;;;;;6.63;4.43;;;15.60;99.90;;;;;;5052421;28;20045;-70
2022/08/30 01:27:49;;;;;;;11.02;4.57;;;15.70;99.90;;;;;;5051711;28;20049;-70
2022/08/30 01:30:15;;;;;;;5.93;3.95;;;15.50;99.90;;;;;;5051708;28;20470;-70
2022/08/30 01:32:43;;;;;;;8.98;4.22;;;15.50;99.90;;;;;;5051342;28;20124;-70
2022/08/30 01:35:15;;;;;;;7.55;4.00;;;15.60;99.90;;;;;;5050964;28;20033;-71
2022/08/30 01:37:41;;;;;;;4.50;3.90;;;15.40;99.90;;;;;;5052430;28;20044;-71
2022/08/30 01:40:08;;;;;;;5.20;4.28;;;15.60;99.90;;;;;;5052254;28;20040;-70
2022/08/30 01:42:34;;;;;;;7.68;4.65;;;15.70;99.90;;;;;;5052626;28;20083;-71
2022/08/30 01:45:00;;;;;;;10.93;4.68;;;15.70;99.90;;;;;;5050790;28;20506;-70
2022/08/30 01:47:26;;;;;;;5.70;4.07;;;15.60;99.90;;;;;;5052132;28;20045;-70
2022/08/30 01:49:52;;;;;;;5.82;3.75;;;15.60;99.90;;;;;;5052253;28;20044;-71
2022/08/30 01:52:18;;;;;;;5.78;4.32;;;15.50;99.90;;;;;;5052167;28;20037;-71
2022/08/30 01:54:45;;;;;;;7.00;4.13;;;15.70;99.90;;;;;;5050464;28;20041;-70
2022/08/30 01:57:14;;;;;;;7.88;4.15;;;15.50;99.90;;;;;;5050891;28;20053;-71
2022/08/30 01:59:46;;;;;;;6.40;4.10;;;15.60;99.90;;;;;;5051926;28;20556;-71
2022/08/30 02:02:16;;;;;;;7.18;4.50;;;15.40;99.90;;;;;;5050981;28;20048;-70
2022/08/30 02:04:42;;;;;;;5.85;4.28;;;15.50;99.90;;;;;;5050609;28;20049;-71
2022/08/30 02:07:08;;;;;;;5.70;3.25;;;15.60;99.90;;;;;;5050699;28;20440;-70
2022/08/30 02:09:33;;;;;;;6.63;3.40;;;15.70;99.90;;;;;;5052049;28;20089;-70
2022/08/30 02:11:59;;;;;;;3.53;3.13;;;15.60;99.90;;;;;;5050626;28;20140;-71
2022/08/30 02:14:24;;;;;;;8.13;4.15;;;15.50;99.90;;;;;;5051618;28;20052;-70
2022/08/30 02:16:50;;;;;;;9.32;4.38;;;15.50;99.90;;;;;;5051666;28;20127;-71
2022/08/30 02:19:16;;;;;;;5.65;4.18;;;15.60;99.90;;;;;;5051732;28;20502;-70
2022/08/30 02:21:42;;;;;;;7.95;4.20;;;15.60;99.90;;;;;;5050404;28;20049;-71
2022/08/30 02:24:08;;;;;;;6.68;3.63;;;;;;;;;;5050474;28;20407;-70
2022/08/30 02:26:35;;;;;;;6.88;4.28;;;15.50;99.90;;;;;;5049532;28;20041;-70
2022/08/30 02:29:04;;;;;;;8.60;4.35;;;15.60;99.90;;;;;;5055978;22;20049;-71
2022/08/30 02:31:29;;;;;;;6.88;3.92;;;15.40;99.90;;;;;;5013719;28;20033;-71
2022/08/30 02:33:55;;;;;;;6.97;5.15;;;15.40;99.90;;;;;;5029808;28;20392;-69
2022/08/30 02:36:21;;;;;;;6.75;4.05;;;15.30;99.90;;;;;;5030061;28;20111;-70
2022/08/30 02:38:49;;;;;;;6.60;4.20;;;15.50;99.90;;;;;;5046582;28;20124;-70
2022/08/30 02:41:16;;;;;;;6.93;4.65;;;16.30;99.90;;;;;;5031451;28;20124;-70
2022/08/30 02:43:42;;;;;;;6.75;4.85;;;15.40;99.90;;;;;;5030134;28;20068;-69
2022/08/30 02:46:08;;;;;;;8.60;5.55;;;15.30;99.90;;;;;;5029950;28;20463;-71
2022/08/30 02:48:33;;;;;;;6.55;4.68;;;15.30;99.90;;;;;;5031010;28;20040;-70
2022/08/30 02:51:05;;;;;;;6.75;5.05;;;15.30;99.90;;;;;;5031240;28;20531;-71
2022/08/30 02:53:31;;;;;;;7.30;4.97;;;15.40;99.90;;;;;;5029982;28;20383;-70
2022/08/30 02:55:57;;;;;;;8.65;5.68;;;15.20;99.90;;;;;;5029604;28;20045;-71
2022/08/30 02:58:23;;;;;;;12.98;5.82;;;15.10;99.90;;;;;;5029910;28;20053;-71
2022/08/30 03:00:49;;;;;;;9.13;6.72;;;15.00;99.90;;;;;;5029768;28;20435;-71
2022/08/30 03:03:14;;;;;;;10.05;6.32;;;15.10;99.90;;;;;;5031216;28;20175;-71
2022/08/30 03:05:40;;;;;;;6.38;4.47;;;15.00;99.90;;;;;;5029594;28;20124;-70
2022/08/30 03:08:07;;;;;;;7.18;4.13;;;15.00;99.90;;;;;;5029634;28;20034;-71
2022/08/30 03:10:33;;;;;;;7.00;4.45;;;14.90;99.90;;;;;;5029942;28;20029;-71
2022/08/30 03:12:58;;;;;;;8.52;4.32;;;15.40;99.90;;;;;;5031023;28;20037;-71
2022/08/30 03:15:25;;;;;;;5.28;3.50;;;14.90;99.90;;;;;;5029606;28;20041;-71
2022/08/30 03:17:52;;;;;;;5.53;4.00;;;14.80;99.90;;;;;;5029634;28;20053;-71
2022/08/30 03:20:19;;;;;;;6.50;3.85;;;14.80;99.90;;;;;;5029687;28;20083;-71
2022/08/30 03:22:45;;;;;;;5.95;4.40;;;14.80;99.90;;;;;;5029816;28;20045;-71
2022/08/30 03:25:11;;;;;;;6.95;3.92;;;14.50;99.90;;;;;;5029586;28;20038;-71
2022/08/30 03:27:37;;;;;;;4.85;3.50;;;14.80;99.90;;;;;;5029822;28;20041;-71
2022/08/30 03:30:04;;;;;;;4.85;4.22;;;14.60;99.90;;;;;;5028895;28;20033;-71
2022/08/30 03:32:30;;;;;;;4.55;3.58;;;14.70;99.90;;;;;;5028505;28;20044;-71
2022/08/30 03:34:55;;;;;;;4.90;4.13;;;14.60;99.90;;;;;;5029658;28;20472;-71
2022/08/30 03:37:21;;;;;;;6.63;4.63;;;14.50;99.90;;;;;;5028543;28;20042;-71
2022/08/30 03:39:47;;;;;;;6.95;5.03;;;;;;;;;;5032371;28;20462;-71
2022/08/30 03:42:14;;;;;;;7.53;5.13;;;14.50;99.90;;;;;;5031665;28;20053;-71
2022/08/30 03:44:39;;;;;;;7.70;5.30;;;14.60;99.90;;;;;;5033086;28;20549;-71
2022/08/30 03:47:06;;;;;;;7.78;4.55;;;14.40;99.90;;;;;;5031787;28;20128;-71
2022/08/30 03:49:31;;;;;;;6.13;4.85;;;14.50;99.90;;;;;;5015261;28;20063;-70
2022/08/30 03:51:57;;;;;;;7.55;4.85;;;14.40;99.90;;;;;;5031769;28;20466;-71
2022/08/30 03:54:23;;;;;;;6.85;4.65;;;14.50;99.90;;;;;;5031491;28;20044;-71
2022/08/30 03:56:48;;;;;;;7.93;5.65;;;14.40;99.90;;;;;;5031663;28;20042;-71
2022/08/30 03:59:14;;;;;;;13.00;7.22;;;;;;;;;;5015137;28;20041;-71
2022/08/30 04:01:44;;;;;;;8.05;6.57;;;14.40;99.90;;;;;;5031788;28;20499;-71
2022/08/30 04:04:10;;;;;;;10.48;6.82;;;14.40;99.90;;;;;;5032673;28;20065;-70
2022/08/30 04:06:36;;;;;;;8.05;6.22;;;14.40;99.90;;;;;;5032788;28;20034;-71
2022/08/30 04:09:02;;;;;;;8.15;5.50;;;14.40;99.90;;;;;;5032677;28;20047;-72
2022/08/30 04:11:28;;;;;;;4.97;4.28;;;14.50;99.90;;;;;;5032784;28;20140;-71
2022/08/30 04:13:55;;;;;;;10.35;5.68;;;;;;;;;;5031353;28;20526;-69
2022/08/30 04:16:22;;;;;;;10.52;6.70;;;14.40;99.90;;;;;;5032914;28;20092;-71
2022/08/30 04:18:48;;;;;;;10.15;5.90;;;14.30;99.90;;;;;;5031689;28;20051;-71
2022/08/30 04:21:14;;;;;;;7.68;5.82;;;14.30;99.90;;;;;;5015041;28;20041;-71
2022/08/30 04:23:40;;;;;;;8.43;5.88;;;14.40;99.90;;;;;;5032547;28;20175;-71
2022/08/30 04:26:06;;;;;;;5.35;4.55;;;14.20;99.90;;;;;;5032473;28;20082;-71
2022/08/30 04:28:33;;;;;;;9.02;5.95;;;14.30;99.90;;;;;;4992648;28;1103712;-71
2022/08/30 04:31:02;;;;;;;6.38;5.13;;;14.30;99.90;;;;;;5033422;28;20046;-70
2022/08/30 04:33:27;;;;;;;8.38;6.63;;;14.20;99.90;;;;;;5032175;28;20124;-71
2022/08/30 04:35:53;;;;;;;10.43;6.30;;;14.30;99.90;;;;;;5033119;28;20195;-71
2022/08/30 04:38:18;;;;;;;9.40;6.80;;;14.40;99.90;;;;;;5033504;28;20442;-71
2022/08/30 04:40:47;;;;;;;9.32;7.28;;;14.50;99.90;;;;;;5033494;28;20043;-70
2022/08/30 04:43:13;;;;;;;9.10;7.32;;;14.40;99.90;;;;;;5032032;28;20043;-71
2022/08/30 04:45:39;;;;;;;10.30;7.30;;;14.30;99.90;;;;;;5031510;28;20038;-71
2022/08/30 04:48:05;;;;;;;8.50;6.55;;;14.30;99.90;;;;;;5033089;28;20349;-71
2022/08/30 04:50:31;;;;;;;11.20;7.10;;;14.30;99.90;;;;;;5014901;28;20033;-71
2022/08/30 04:52:57;;;;;;;9.68;7.05;;;14.10;99.90;;;;;;5033292;28;20038;-71
2022/08/30 04:55:26;;;;;;;7.45;6.13;;;;;;;;;;5015281;28;20123;-71
2022/08/30 04:57:52;;;;;;;7.50;6.35;;;14.30;99.90;;;;;;5031728;28;20041;-71
2022/08/30 05:00:21;;;;;;;9.40;5.45;;;14.20;99.90;;;;;;5031950;28;20128;-71
2022/08/30 05:02:48;;;;;;;9.73;5.85;;;14.10;99.90;;;;;;5032996;28;20167;-71
2022/08/30 05:07:58;;;;;;;7.07;4.82;;;14.00;99.90;;;;;;5031618;28;20049;-71
2022/08/30 05:10:26;;;;;;;7.30;5.60;;;14.30;99.90;;;;;;5031859;28;20454;-71
2022/08/30 05:12:52;;;;;;;12.07;6.22;;;;;;;;;;5033129;28;20044;-70
2022/08/30 05:15:19;;;;;;;8.77;5.70;;;14.20;99.90;;;;;;5033049;28;20053;-71
2022/08/30 05:17:44;;;;;;;7.60;5.30;;;14.10;99.90;;;;;;5015477;28;20049;-71
2022/08/30 05:20:11;;;;;;;5.53;4.72;;;14.10;99.90;;;;;;5014851;28;20033;-71
2022/08/30 05:22:39;;;;;;;7.35;4.45;;;14.20;99.90;;;;;;5031535;28;20045;-71
2022/08/30 05:25:05;;;;;;;9.05;5.18;;;14.20;99.90;;;;;;5032560;28;20045;-71
2022/08/30 05:27:31;;;;;;;8.27;4.57;;;14.10;99.90;;;;;;5030562;28;20037;-70
2022/08/30 05:29:57;;;;;;;7.53;4.72;;;14.40;99.90;;;;;;5031311;28;20095;-71
2022/08/30 05:32:23;;;;;;;6.28;5.20;;;14.40;99.90;;;;;;5031391;28;20044;-70
2022/08/30 05:34:49;;;;;;;16.23;6.38;;;14.40;99.90;;;;;;5030796;28;20048;-71
2022/08/30 05:37:15;;;;;;;8.00;4.30;;;;;;;;;;5031001;28;20045;-71
2022/08/30 05:39:41;;;;;;;7.90;4.95;;;14.30;99.90;;;;;;5032228;28;20048;-71
2022/08/30 05:42:06;;;;;;;6.07;4.15;;;14.60;99.90;;;;;;5032144;28;20120;-71
2022/08/30 05:44:32;;;;;;;7.88;4.88;;;14.60;99.90;;;;;;5032003;28;20041;-71
2022/08/30 05:46:57;;;;;;;7.15;4.82;;;14.70;99.90;;;;;;5031109;28;20088;-71
2022/08/30 05:49:23;;;;;;;8.38;5.00;;;14.70;99.90;;;;;;5030801;28;20037;-71
2022/08/30 05:51:49;;;;;;;11.55;6.40;;;14.70;99.90;;;;;;5014316;28;20439;-72
2022/08/30 05:54:15;;;;;;;7.55;5.18;;;14.80;99.90;;;;;;5031806;28;20041;-71
2022/08/30 05:56:44;;;;;;;8.07;5.65;;;14.70;99.90;;;;;;5031839;28;20041;-72
2022/08/30 05:59:12;;;;;;;7.45;4.90;;;14.60;99.90;;;;;;5031794;28;20511;-72
2022/08/30 06:01:44;;;;;;;7.93;5.03;;;14.90;99.90;;;;;;5015513;28;20037;-72
2022/08/30 06:04:12;;;;;;;10.85;5.72;;;15.00;99.90;;;;;;5037405;28;20076;-72
2022/08/30 06:06:39;;;;;;;7.45;5.47;;;14.80;99.90;;;;;;5033200;28;20421;-72
2022/08/30 06:09:07;;;;;;;7.13;5.00;;;15.00;99.90;;;;;;5022673;28;20133;-72
2022/08/30 06:11:33;;;;;;;8.13;4.05;;;15.10;99.90;;;;;;5029504;28;20465;-72
2022/08/30 06:14:03;;;;;;;8.18;4.53;;;15.20;99.90;;;;;;5008728;28;20124;-72
2022/08/30 06:16:30;;;;;;;5.50;4.10;;;;;;;;;;5023494;28;20037;-72
2022/08/30 06:18:57;;;;;;;7.95;4.10;;;15.30;99.90;;;;;;5031107;28;20527;-72
2022/08/30 06:21:27;;;;;;;7.85;4.35;;;15.40;99.90;;;;;;5037166;28;20081;-71
2022/08/30 06:23:54;;;;;;;6.50;3.72;;;15.40;99.90;;;;;;5024682;28;20103;-72
2022/08/30 06:26:20;;;;;;;5.88;4.60;;;15.50;99.90;;;;;;5032891;28;20132;-71
2022/08/30 06:28:46;;;;;;;8.65;4.95;;;15.70;99.90;;;;;;5027421;28;20491;-71
2022/08/30 06:31:14;;;;;;;7.13;4.20;;;15.70;99.90;;;;;;5032208;28;20113;-72
2022/08/30 06:33:39;;;;;;;9.65;4.78;;;15.70;99.90;;;;;;5022127;28;20038;-72
2022/08/30 06:36:08;;;;;;;7.38;4.97;;;15.70;99.90;;;;;;5029718;28;20450;-71
2022/08/30 06:38:35;;;;;;;8.30;3.90;;;15.90;99.90;;;;;;5030827;28;20045;-72
2022/08/30 06:41:10;;;;;;;8.50;3.70;;;15.90;99.90;;;;;;5031432;28;20052;-71
2022/08/30 06:43:36;;;;;;;5.28;3.08;;;16.20;99.90;;;;;;5014665;28;20424;-71
2022/08/30 06:46:06;;;;;;;4.00;3.55;;;16.00;99.90;;;;;;5020877;28;20037;-72
2022/08/30 06:48:32;;;;;;;5.38;3.20;;;16.20;99.90;;;;;;5030520;28;20034;-72
2022/08/30 06:50:58;;;;;;;8.02;3.40;;;16.40;99.90;;;;;;5009954;28;20107;-71
2022/08/30 06:53:24;;;;;;;7.60;3.40;;;16.30;99.90;;;;;;5025916;28;20042;-72
2022/08/30 06:56:08;;;;;;;6.70;3.38;;;16.50;99.90;;;;;;5010394;28;20038;-71
2022/08/30 06:58:36;;;;;;;10.07;3.33;;;16.60;99.90;;;;;;5011588;28;20080;-72
2022/08/30 07:01:02;;;;;;;5.45;3.13;;;16.60;99.90;;;;;;5013936;28;20042;-71
2022/08/30 07:03:28;;;;;;;6.40;3.55;;;16.80;99.90;;;;;;5030323;28;20045;-71
2022/08/30 07:05:55;;;;;;;6.30;3.35;;;17.40;99.90;;;;;;5030900;28;20083;-72
2022/08/30 07:08:21;;;;;;;3.85;2.63;;;16.90;99.90;;;;;;5018130;28;20123;-72
2022/08/30 07:10:48;;;;;;;4.35;3.17;;;17.00;99.90;;;;;;5011165;28;20038;-72
2022/08/30 07:13:15;;;;;;;12.02;3.72;;;17.10;99.90;;;;;;5010523;28;20025;-72
2022/08/30 07:15:45;;;;;;;6.90;3.08;;;17.20;99.90;;;;;;5026469;28;20052;-72
2022/08/30 07:21:03;;;;;;;5.97;3.47;;;18.70;99.90;;;;;;5031461;28;20633;-71
2022/08/30 07:23:29;;;;;;;8.90;3.80;;;18.10;99.90;;;;;;5032697;28;20041;-72
2022/08/30 07:25:55;;;;;;;5.57;3.25;;;18.00;99.90;;;;;;5032451;28;20037;-72
2022/08/30 07:28:21;;;;;;;6.22;3.10;;;18.10;99.90;;;;;;5031797;28;20187;-72
2022/08/30 07:30:47;;;;;;;6.63;2.88;;;17.50;99.90;;;;;;5027921;28;20112;-72
2022/08/30 07:33:12;;;;;;;4.13;2.60;;;17.80;99.90;;;;;;5032431;28;20488;-72
2022/08/30 07:35:38;;;;;;;3.80;2.50;;;17.80;99.90;;;;;;5032879;28;20030;-72
2022/08/30 07:38:04;;;;;;;4.15;1.90;;;18.00;99.90;;;;;;5012645;28;20136;-72
2022/08/30 07:40:29;;;;;;;4.63;2.63;;;18.00;99.90;;;;;;5012752;28;20041;-72
2022/08/30 07:42:55;;;;;;;6.15;2.45;;;18.10;99.90;;;;;;5012529;28;20048;-72
2022/08/30 07:45:20;;;;;;;3.85;2.33;;;18.20;99.90;;;;;;5012126;28;20042;-70
2022/08/30 07:47:46;;;;;;;10.15;2.50;;;18.40;99.90;;;;;;5013553;28;20034;-72
2022/08/30 07:50:12;;;;;;;3.60;2.08;;;18.50;99.90;;;;;;5033261;28;20658;-72
2022/08/30 07:52:38;;;;;;;4.13;2.33;;;19.50;99.90;;;;;;5034057;28;20037;-72
2022/08/30 07:55:05;;;;;;;2.28;1.75;;;18.70;99.90;;;;;;5024135;28;20121;-72
2022/08/30 07:57:33;;;;;;;6.30;2.33;;;18.60;99.90;;;;;;5014350;28;20407;-72
2022/08/30 07:59:59;;;;;;;4.25;2.03;;;18.80;99.90;;;;;;5014323;28;20080;-72
2022/08/30 08:02:25;;;;;;;4.97;2.25;;;19.10;99.90;;;;;;5013934;28;20116;-72
2022/08/30 08:04:51;;;;;;;6.35;2.47;;;19.70;99.90;;;;;;5013762;28;20037;-72
2022/08/30 08:07:16;;;;;;;8.05;2.22;;;19.00;99.90;;;;;;5033238;28;20136;-72
2022/08/30 08:09:42;;;;;;;3.17;1.80;;;20.50;99.90;;;;;;5033355;28;20038;-72
2022/08/30 08:12:08;;;;;;;3.72;2.00;;;20.30;99.90;;;;;;5018046;28;20052;-72
2022/08/30 08:14:34;;;;;;;3.33;2.33;;;19.20;99.90;;;;;;5012022;28;20484;-72
2022/08/30 08:17:00;;;;;;;5.97;2.00;;;19.20;99.90;;;;;;5024523;28;20048;-71
2022/08/30 08:19:26;;;;;;;4.85;2.10;;;20.90;99.90;;;;;;5029078;28;20041;-73
2022/08/30 08:21:55;;;;;;;4.00;1.70;;;19.40;99.90;;;;;;5033570;28;20037;-71
2022/08/30 08:24:22;;;;;;;2.90;1.48;;;20.40;99.90;;;;;;5022600;28;20034;-72
2022/08/30 08:26:48;;;;;;;6.20;1.70;;;19.30;99.90;;;;;;5013624;28;20058;-72
2022/08/30 08:29:14;;;;;;;1.60;0.98;;;20.70;99.90;;;;;;5046616;22;20142;-69
2022/08/30 08:31:40;;;;;;;2.17;1.27;;;19.30;99.90;;;;;;5015337;28;20507;-70
2022/08/30 08:34:07;;;;;;;3.83;1.52;;;19.60;99.90;;;;;;5031713;28;20232;-69
2022/08/30 08:36:34;;;;;;;6.90;1.50;;;20.30;99.90;;;;;;5032219;28;20045;-70
2022/08/30 08:39:02;;;;;;;3.75;1.52;;;20.80;99.90;;;;;;5015861;28;20045;-69
2022/08/30 08:42:06;;;;;;;3.97;1.63;;;19.70;99.90;;;;;;5031096;28;20065;-70
2022/08/30 08:44:53;;;;;;;4.47;1.75;;;19.50;99.90;;;;;;5032275;28;20045;-69
2022/08/30 08:47:25;;;;;;;3.38;1.40;;;19.30;99.90;;;;;;5031071;28;20037;-70
2022/08/30 08:49:54;;;;;;;2.42;1.38;;;19.60;99.90;;;;;;5033482;28;20037;-69
2022/08/30 08:55:17;;;;;;;2.40;1.33;;;19.70;99.90;;;;;;5031030;28;20106;-70
2022/08/30 08:57:44;;;;;;;3.13;1.50;;;19.90;99.90;;;;;;5032840;28;20406;-70
2022/08/30 09:00:12;;;;;;;4.32;1.20;;;20.00;99.90;;;;;;5025436;28;20044;-71
2022/08/30 09:02:46;;;;;;;3.28;1.58;;;20.20;99.90;;;;;;5032018;28;20037;-70
2022/08/30 09:05:17;;;;;;;10.38;2.35;;;20.70;99.90;;;;;;5030884;28;20037;-70
2022/08/30 09:07:48;;;;;;;5.35;1.60;;;20.60;99.90;;;;;;5031642;28;20049;-70
2022/08/30 09:10:14;;;;;;;2.42;1.42;;;20.50;99.90;;;;;;5034333;28;20038;-70
2022/08/30 09:12:40;;;;;;;1.92;1.38;;;20.00;99.90;;;;;;5034099;28;20040;-69
2022/08/30 09:15:19;;;;;;;6.05;1.65;;;21.30;99.90;;;;;;5032293;28;20521;-70
2022/08/30 09:18:09;;;;;;;2.08;1.35;;;20.30;99.90;;;;;;5030339;28;20025;-70
2022/08/30 09:20:40;;;;;;;2.90;1.65;;;20.30;99.80;;;;;;5023840;28;20048;-70
2022/08/30 09:23:14;;;;;;;3.28;1.55;;;20.90;99.90;;;;;;5030844;28;20041;-70
2022/08/30 09:26:02;;;;;;;3.63;1.48;;;21.00;99.90;;;;;;5029486;28;20052;-70
2022/08/30 09:28:46;;;;;;;2.88;1.50;;;20.80;99.90;;;;;;5030579;28;20499;-70
2022/08/30 09:31:24;;;;;;;2.92;1.40;;;20.70;99.70;;;;;;5030051;28;20034;-70
2022/08/30 09:34:00;;;;;;;3.47;1.63;;;21.60;99.90;;;;;;5031927;28;20044;-70
2022/08/30 09:36:29;;;;;;;2.47;1.40;;;20.80;99.90;;;;;;5030203;28;20041;-69
2022/08/30 09:39:15;;;;;;;2.28;1.58;;;20.40;99.90;;;;;;5013849;28;20037;-69
2022/08/30 09:41:44;;;;;;;2.92;1.70;;;20.40;99.70;;;;;;5031845;28;20045;-70
2022/08/30 09:44:21;;;;;;;3.83;1.88;;;20.50;99.90;;;;;;5029733;28;20052;-70
2022/08/30 09:46:51;;;;;;;3.33;1.40;;;20.70;99.90;;;;;;5030921;28;20462;-70
2022/08/30 09:49:30;;;;;;;8.48;2.67;;;21.10;99.90;;;;;;5026274;28;20025;-71
2022/08/30 09:52:30;;;;;;;2.25;1.38;;;20.80;99.90;;;;;;5030454;28;20041;-70
2022/08/30 09:55:22;;;;;;;1.70;1.27;;;20.70;99.60;;;;;;5013449;28;20045;-70
2022/08/30 09:57:56;;;;;;;2.85;1.33;;;20.80;99.50;;;;;;5032250;28;20042;-68
2022/08/30 10:00:30;;;;;;;5.75;1.58;;;20.80;99.20;;;;;;5028968;28;20131;-68
2022/08/30 10:03:27;;;;;;;2.40;1.17;;;21.50;99.90;;;;;;5028982;28;20055;-68
2022/08/30 10:06:14;;;;;;;2.22;1.38;;;21.40;99.60;;;;;;5029816;28;20087;-69
2022/08/30 10:09:02;;;;;;;2.08;1.45;;;21.60;99.20;;;;;;5030863;28;20112;-70
2022/08/30 10:11:33;;;;;;;2.90;1.25;;;21.40;98.40;;;;;;5030661;28;20041;-70
2022/08/30 10:14:22;;;;;;;5.75;1.52;;;21.40;98.20;;;;;;5025650;28;20045;-68
2022/08/30 10:17:37;;;;;;;2.28;1.10;;;21.40;98.20;;;;;;5025563;28;20474;-70
2022/08/30 10:20:06;;;;;;;2.58;1.17;;;21.70;98.20;;;;;;4974755;28;20053;-70
2022/08/30 10:22:46;;;;;;;3.70;1.73;;;21.60;98.30;;;;;;5028087;28;20080;-69
2022/08/30 10:25:20;;;;;;;6.00;1.55;;;21.70;98.10;;;;;;5025964;28;20209;-70
2022/08/30 10:27:59;;;;;;;2.22;1.17;;;21.70;98.40;;;;;;5026123;28;20060;-68
2022/08/30 10:30:27;;;;;;;4.78;1.65;;;21.70;97.80;;;;;;5026773;28;20618;-71
2022/08/30 10:33:05;;;;;;;1.23;0.95;;;21.50;98.10;;;;;;5026446;28;20116;-70
2022/08/30 10:35:43;;;;;;;2.83;1.10;;;21.70;97.70;;;;;;5022595;28;20172;-70
2022/08/30 10:38:22;;;;;;;4.13;1.33;;;22.10;97.30;;;;;;5028929;28;20116;-71
2022/08/30 10:41:12;;;;;;;3.88;1.00;;;21.80;98.10;;;;;;5029204;28;20064;-70
2022/08/30 10:43:52;;;;;;;2.55;1.23;;;21.70;97.30;;;;;;5029674;28;20048;-70
2022/08/30 10:46:23;;;;;;;7.75;1.73;;;21.30;97.70;;;;;;5030099;28;20045;-71
2022/08/30 10:48:49;;;;;;;1.58;0.90;;;21.50;97.40;;;;;;5030712;28;20490;-70
2022/08/30 10:51:46;;;;;;;2.72;0.80;;;21.10;97.10;;;;;;5033855;28;20087;-70
2022/08/30 10:54:35;;;;;;;1.77;1.40;;;21.60;97.30;;;;;;5027111;28;20100;-70
2022/08/30 10:57:01;;;;;;;3.83;1.10;;;22.50;97.70;;;;;;5033989;28;20380;-70
2022/08/30 10:59:27;;;;;;;2.00;1.00;;;21.70;97.20;;;;;;5034010;28;20036;-70
2022/08/30 11:02:10;;;;;;;2.42;0.93;;;22.30;97.40;;;;;;5033760;28;20120;-70
2022/08/30 11:04:49;;;;;;;;;;;21.70;96.30;;;;;;5035517;28;20037;-70
2022/08/30 11:07:21;;;;;;;3.33;1.15;;;22.10;96.20;;;;;;5032853;28;19987;-70
2022/08/30 11:10:23;;;;;;;3.10;0.80;;;22.00;96.40;;;;;;5024602;28;20499;-70
2022/08/30 11:13:00;;;;;;;2.47;1.05;;;22.10;96.30;;;;;;5034103;28;20096;-72
2022/08/30 11:15:30;;;;;;;5.10;1.02;;;21.70;95.80;;;;;;5034234;28;20128;-70
2022/08/30 11:18:10;;;;;;;3.33;1.10;;;22.80;96.90;;;;;;5017972;28;20075;-70
2022/08/30 11:20:41;;;;;;;2.25;1.13;;;22.00;96.60;;;;;;5034330;28;20175;-70
2022/08/30 11:23:18;;;;;;;2.50;1.15;;;22.30;95.80;;;;;;5029951;28;20052;-68
2022/08/30 11:26:06;;;;;;;1.90;1.10;;;22.30;95.60;;;;;;5023836;28;20512;-70
2022/08/30 11:28:35;;;;;;;2.53;1.05;;;22.50;96.00;;;;;;5026952;28;20646;-70
2022/08/30 11:31:03;;;;;;;2.55;0.80;;;22.30;95.70;;;;;;5017856;28;20487;-70
2022/08/30 11:33:49;;;;;;;3.88;1.02;;;22.30;95.80;;;;;;5033515;28;20037;-70
2022/08/30 11:36:27;;;;;;;1.10;0.70;;;22.30;94.70;;;;;;5032098;28;20034;-71
2022/08/30 11:38:52;;;;;;;1.17;0.90;;;21.90;94.90;;;;;;5031794;28;20080;-70
2022/08/30 11:42:15;;;;;;;1.63;1.00;;;22.10;94.90;;;;;;5032706;28;20084;-72
2022/08/30 11:44:40;;;;;;;1.17;0.70;;;22.40;95.00;;;;;;4974643;28;20144;-69
2022/08/30 11:47:42;;;;;;;3.30;1.20;;;22.90;95.60;;;;;;4991784;28;20483;-70
2022/08/30 11:50:19;;;;;;;3.38;1.20;;;22.10;94.50;;;;;;5021627;28;20143;-70
2022/08/30 11:53:07;;;;;;;2.10;1.02;;;22.80;95.20;;;;;;5030433;28;20120;-70
2022/08/30 11:55:42;;;;;;;2.40;1.27;;;22.30;94.60;;;;;;5030759;28;20037;-70
2022/08/30 11:58:13;;;;;;;1.92;1.13;;;22.60;95.00;;;;;;5032421;28;20037;-71
2022/08/30 12:00:43;;;;;;;3.88;1.00;;;22.60;95.40;;;;;;5031169;28;20045;-69
2022/08/30 12:03:15;;;;;;;10.43;1.25;;;22.60;95.30;;;;;;5031127;28;20060;-70
2022/08/30 12:05:44;;;;;;;4.45;1.20;;;23.90;95.70;;;;;;5032914;28;20063;-70
2022/08/30 12:08:23;;;;;;;1.88;1.00;;;23.00;95.40;;;;;;5032746;28;20095;-71
2022/08/30 12:11:26;;;;;;;2.88;1.10;;;22.60;95.30;;;;;;5029196;28;20037;-71
2022/08/30 12:13:54;;;;;;;4.30;1.17;;;24.00;95.80;;;;;;5012871;28;20041;-70
2022/08/30 12:16:23;;;;;;;2.10;1.00;;;23.00;96.10;;;;;;5014014;28;20518;-70
2022/08/30 12:19:00;;;;;;;3.25;1.25;;;22.80;96.40;;;;;;5014715;28;20039;-70
2022/08/30 12:21:36;;;;;;;1.75;0.75;;;23.00;96.20;;;;;;5016635;28;20045;-70
2022/08/30 12:24:04;;;;;;;1.33;0.80;;;22.70;96.10;;;;;;5032947;28;20041;-70
2022/08/30 12:26:35;;;;;;;7.50;2.55;;;22.80;96.20;;;;;;5033836;28;20072;-70
2022/08/30 12:29:12;;;;;;;2.65;1.05;;;22.70;95.80;;;;;;5031777;28;20041;-70
2022/08/30 12:32:03;;;;;;;1.75;0.90;;;22.50;96.50;;;;;;5015793;28;20495;-71
2022/08/30 12:34:42;;;;;;;1.38;1.00;;;22.80;95.70;;;;;;5032123;28;20041;-70
2022/08/30 12:37:18;;;;;;;1.70;1.20;;;22.60;96.20;;;;;;5031542;28;20038;-70
2022/08/30 12:39:44;;;;;;;1.75;0.90;;;22.40;95.50;;;;;;5032530;28;20513;-70
2022/08/30 12:42:16;;;;;;;3.30;1.65;;;22.90;96.30;;;;;;5028272;28;20868;-70
2022/08/30 12:44:42;;;;;;;5.03;1.33;;;23.70;96.40;;;;;;5015080;28;20125;-70
2022/08/30 12:47:11;;;;;;;1.90;1.15;;;24.00;96.20;;;;;;5031974;28;20120;-70
2022/08/30 12:49:39;;;;;;;1.52;0.80;;;23.40;96.00;;;;;;5032286;28;20398;-70
2022/08/30 12:52:17;;;;;;;2.33;1.00;;;22.80;96.30;;;;;;5032595;28;20029;-70
2022/08/30 12:54:44;;;;;;;1.90;1.20;;;23.10;95.70;;;;;;5032166;28;20487;-70
2022/08/30 12:57:10;;;;;;;2.10;1.10;;;23.00;95.90;;;;;;5031549;28;20091;-70
2022/08/30 12:59:41;;;;;;;2.63;1.10;;;24.50;96.60;;;;;;5030932;28;20042;-71
2022/08/30 13:02:25;;;;;;;5.38;1.35;;;23.10;95.90;;;;;;5032267;28;20513;-70
2022/08/30 13:04:53;;;;;;;2.08;1.33;;;23.10;95.60;;;;;;5030949;28;20063;-70
2022/08/30 13:07:34;;;;;;;2.47;0.90;;;23.00;96.10;;;;;;5031415;28;20484;-70
2022/08/30 13:10:18;;;;;;;3.53;0.93;;;23.30;96.20;;;;;;5031158;28;20083;-70
2022/08/30 13:12:58;;;;;;;3.38;0.98;;;23.10;95.40;;;;;;5031217;28;20037;-70